createdAt,value
2023-08-05T00:00:02.198Z,19.87
2023-08-05T00:02:29.856Z,19.83
2023-08-05T00:04:57.868Z,19.81
2023-08-05T00:07:25.484Z,19.81
2023-08-05T00:09:53.260Z,19.77
2023-08-05T00:12:20.891Z,19.77
2023-08-05T00:14:50.062Z,19.77
2023-08-05T00:17:17.819Z,19.76
2023-08-05T00:19:45.749Z,19.80
2023-08-05T00:22:13.398Z,19.83
2023-08-05T00:24:41.884Z,19.79
2023-08-05T00:27:09.565Z,19.79
2023-08-05T00:29:37.435Z,19.81
2023-08-05T00:32:07.244Z,19.82
2023-08-05T00:34:35.910Z,19.84
2023-08-05T00:37:03.869Z,19.87
2023-08-05T00:39:31.728Z,19.86
2023-08-05T00:41:59.366Z,19.87
2023-08-05T00:44:27.170Z,19.85
2023-08-05T00:46:54.857Z,19.82
2023-08-05T00:49:24.081Z,19.79
2023-08-05T00:51:51.699Z,19.76
2023-08-05T00:54:19.529Z,19.71
2023-08-05T00:56:47.344Z,19.67
2023-08-05T00:59:15.152Z,19.65
2023-08-05T01:01:42.907Z,19.55
2023-08-05T01:04:10.619Z,19.51
2023-08-05T01:06:39.709Z,19.43
2023-08-05T01:09:07.413Z,19.40
2023-08-05T01:11:35.050Z,19.35
2023-08-05T01:14:03.837Z,19.28
2023-08-05T01:16:31.460Z,19.29
2023-08-05T01:18:59.257Z,19.27
2023-08-05T01:21:33.089Z,18.97
2023-08-05T01:24:10.493Z,19.22
2023-08-05T01:26:39.466Z,19.20
2023-08-05T01:29:07.313Z,19.19
2023-08-05T01:31:34.986Z,18.86
2023-08-05T01:34:02.847Z,19.10
2023-08-05T01:36:31.567Z,19.10
2023-08-05T01:38:59.232Z,19.12
2023-08-05T01:41:27.071Z,19.11
2023-08-05T01:43:56.097Z,19.11
2023-08-05T01:46:24.021Z,19.08
2023-08-05T01:48:51.795Z,19.06
2023-08-05T01:51:19.622Z,19.05
2023-08-05T01:53:47.238Z,19.05
2023-08-05T01:56:14.913Z,19.06
2023-08-05T01:58:42.740Z,19.06
2023-08-05T02:01:11.816Z,19.07
2023-08-05T02:03:39.828Z,18.76
2023-08-05T02:08:41.475Z,19.08
2023-08-05T02:11:09.129Z,19.06
2023-08-05T02:13:36.874Z,19.09
2023-08-05T02:16:05.518Z,19.09
2023-08-05T02:18:34.682Z,19.09
2023-08-05T02:21:02.362Z,19.09
2023-08-05T02:23:30.338Z,19.07
2023-08-05T02:25:57.973Z,19.06
2023-08-05T02:28:25.807Z,19.01
2023-08-05T02:30:53.533Z,19.03
2023-08-05T02:33:21.376Z,18.98
2023-08-05T02:35:50.422Z,18.96
2023-08-05T02:38:18.212Z,18.94
2023-08-05T02:40:45.876Z,18.97
2023-08-05T02:43:13.748Z,18.99
2023-08-05T02:45:42.294Z,18.82
2023-08-05T02:48:10.215Z,19.06
2023-08-05T02:50:37.890Z,19.10
2023-08-05T02:53:07.139Z,19.11
2023-08-05T02:55:34.789Z,19.10
2023-08-05T02:58:02.598Z,19.09
2023-08-05T03:00:30.283Z,19.11
2023-08-05T03:02:58.135Z,19.08
2023-08-05T03:05:25.948Z,19.12
2023-08-05T03:07:54.900Z,19.12
2023-08-05T03:10:24.072Z,19.11
2023-08-05T03:12:51.718Z,19.11
2023-08-05T03:15:19.456Z,19.07
2023-08-05T03:17:47.215Z,19.08
2023-08-05T03:20:24.902Z,19.06
2023-08-05T03:22:53.742Z,19.04
2023-08-05T03:25:22.026Z,19.06
2023-08-05T03:27:51.334Z,19.08
2023-08-05T03:30:19.219Z,19.10
2023-08-05T03:32:48.547Z,19.12
2023-08-05T03:35:16.419Z,19.14
2023-08-05T03:37:45.208Z,19.18
2023-08-05T03:40:13.419Z,19.21
2023-08-05T03:42:41.583Z,19.23
2023-08-05T03:45:12.140Z,19.23
2023-08-05T03:47:40.057Z,19.22
2023-08-05T03:50:10.246Z,19.19
2023-08-05T03:52:39.462Z,19.13
2023-08-05T03:55:09.928Z,19.04
2023-08-05T03:57:37.776Z,19.17
2023-08-05T04:00:06.357Z,19.19
2023-08-05T04:02:35.632Z,19.19
2023-08-05T04:05:04.784Z,19.20
2023-08-05T04:07:32.693Z,19.17
2023-08-05T04:10:00.628Z,19.11
2023-08-05T04:12:28.402Z,19.01
2023-08-05T04:14:59.823Z,18.96
2023-08-05T04:17:27.595Z,18.93
2023-08-05T04:19:57.019Z,18.93
2023-08-05T04:22:26.488Z,18.94
2023-08-05T04:24:54.660Z,19.01
2023-08-05T04:27:23.007Z,19.07
2023-08-05T04:29:51.145Z,19.12
2023-08-05T04:32:18.939Z,19.13
2023-08-05T04:34:46.779Z,19.14
2023-08-05T04:37:19.073Z,19.05
2023-08-05T04:39:47.046Z,19.15
2023-08-05T04:42:14.691Z,19.13
2023-08-05T04:44:43.086Z,19.07
2023-08-05T04:47:10.710Z,19.05
2023-08-05T04:49:39.963Z,19.03
2023-08-05T04:52:08.294Z,19.00
2023-08-05T04:54:40.216Z,18.97
2023-08-05T04:57:08.290Z,18.90
2023-08-05T04:59:36.134Z,19.07
2023-08-05T05:02:03.850Z,19.05
2023-08-05T05:04:31.670Z,19.13
2023-08-05T05:06:59.948Z,19.22
2023-08-05T05:09:27.599Z,19.28
2023-08-05T05:11:56.751Z,19.20
2023-08-05T05:14:24.623Z,19.38
2023-08-05T05:16:53.222Z,19.42
2023-08-05T05:19:21.064Z,19.49
2023-08-05T05:21:48.908Z,19.55
2023-08-05T05:24:17.016Z,19.55
2023-08-05T05:26:46.769Z,19.63
2023-08-05T05:29:15.786Z,19.62
2023-08-05T05:31:43.455Z,19.71
2023-08-05T05:34:11.363Z,19.78
2023-08-05T05:36:39.412Z,19.88
2023-08-05T05:39:07.250Z,20.02
2023-08-05T05:41:34.913Z,20.15
2023-08-05T05:44:05.135Z,20.28
2023-08-05T05:46:34.346Z,20.45
2023-08-05T05:49:05.024Z,20.63
2023-08-05T05:51:32.668Z,20.80
2023-08-05T05:54:00.412Z,20.92
2023-08-05T05:56:28.211Z,20.99
2023-08-05T05:58:56.064Z,20.99
2023-08-05T06:01:24.515Z,20.98
2023-08-05T06:03:53.703Z,20.93
2023-08-05T06:06:21.470Z,21.01
2023-08-05T06:08:49.260Z,21.11
2023-08-05T06:11:17.546Z,21.27
2023-08-05T06:13:45.206Z,21.35
2023-08-05T06:16:12.949Z,21.43
2023-08-05T06:18:40.703Z,21.50
2023-08-05T06:21:09.893Z,21.65
2023-08-05T06:23:37.720Z,21.76
2023-08-05T06:26:05.506Z,21.83
2023-08-05T06:28:33.155Z,21.83
2023-08-05T06:31:00.871Z,21.96
2023-08-05T06:33:28.639Z,22.08
2023-08-05T06:35:56.286Z,22.19
2023-08-05T06:38:26.086Z,22.32
2023-08-05T06:40:53.765Z,22.50
2023-08-05T06:43:21.550Z,22.53
2023-08-05T06:45:49.201Z,22.67
2023-08-05T06:48:17.070Z,22.75
2023-08-05T06:50:44.715Z,22.74
2023-08-05T06:53:12.630Z,22.82
2023-08-05T06:55:41.660Z,22.65
2023-08-05T06:58:09.420Z,22.73
2023-08-05T07:00:37.287Z,22.65
2023-08-05T07:03:05.400Z,22.79
2023-08-05T07:05:33.200Z,22.95
2023-08-05T07:08:00.884Z,23.13
2023-08-05T07:10:28.627Z,23.27
2023-08-05T07:12:57.607Z,23.29
2023-08-05T07:15:25.400Z,23.51
2023-08-05T07:17:53.266Z,23.77
2023-08-05T07:20:21.079Z,24.01
2023-08-05T07:22:48.715Z,24.23
2023-08-05T07:25:16.704Z,24.27
2023-08-05T07:27:44.324Z,24.54
2023-08-05T07:30:13.986Z,24.61
2023-08-05T07:32:41.821Z,24.52
2023-08-05T07:35:11.288Z,24.41
2023-08-05T07:37:39.095Z,24.08
2023-08-05T07:40:13.452Z,24.12
2023-08-05T07:42:41.329Z,24.00
2023-08-05T07:45:15.274Z,23.95
2023-08-05T07:47:45.103Z,23.93
2023-08-05T07:50:15.470Z,24.48
2023-08-05T07:52:43.860Z,25.33
2023-08-05T07:55:11.701Z,25.89
2023-08-05T07:57:41.423Z,26.19
2023-08-05T08:00:11.171Z,26.46
2023-08-05T08:02:39.397Z,26.61
2023-08-05T08:05:09.483Z,26.80
2023-08-05T08:07:37.573Z,26.77
2023-08-05T08:10:06.302Z,26.72
2023-08-05T08:12:34.174Z,26.07
2023-08-05T08:15:03.472Z,25.26
2023-08-05T08:17:37.272Z,25.63
2023-08-05T08:20:19.113Z,25.27
2023-08-05T08:22:47.239Z,25.32
2023-08-05T08:25:18.035Z,26.33
2023-08-05T08:27:47.212Z,27.15
2023-08-05T08:30:15.156Z,27.83
2023-08-05T08:32:46.842Z,27.83
2023-08-05T08:35:22.446Z,28.65
2023-08-05T08:37:50.326Z,26.74
2023-08-05T08:40:18.655Z,29.74
2023-08-05T08:42:47.316Z,30.01
2023-08-05T08:45:17.546Z,30.34
2023-08-05T08:47:45.397Z,31.06
2023-08-05T08:50:13.290Z,31.61
2023-08-05T08:52:42.938Z,32.43
2023-08-05T08:55:11.226Z,32.70
2023-08-05T08:57:38.936Z,33.19
2023-08-05T09:00:08.082Z,33.59
2023-08-05T09:02:36.275Z,33.52
2023-08-05T09:05:04.456Z,33.72
2023-08-05T09:07:33.413Z,33.69
2023-08-05T09:10:06.453Z,34.01
2023-08-05T09:12:35.094Z,34.13
2023-08-05T09:15:03.024Z,34.24
2023-08-05T09:17:38.601Z,34.14
2023-08-05T09:20:13.320Z,34.02
2023-08-05T09:22:40.942Z,33.70
2023-08-05T09:25:10.641Z,32.99
2023-08-05T09:27:47.372Z,32.76
2023-08-05T09:30:18.480Z,33.42
2023-08-05T09:32:46.963Z,33.84
2023-08-05T09:35:14.696Z,34.13
2023-08-05T09:37:42.366Z,34.32
2023-08-05T09:40:22.822Z,33.37
2023-08-05T09:42:51.503Z,32.16
2023-08-05T09:45:19.502Z,31.41
2023-08-05T09:47:48.708Z,31.57
2023-08-05T09:50:18.176Z,32.36
2023-08-05T09:52:47.134Z,33.84
2023-08-05T09:55:15.866Z,34.93
2023-08-05T09:57:45.083Z,35.89
2023-08-05T10:00:15.016Z,36.20
2023-08-05T10:02:43.500Z,36.07
2023-08-05T10:05:11.536Z,35.98
2023-08-05T10:07:41.005Z,35.35
2023-08-05T10:10:10.091Z,34.75
2023-08-05T10:12:40.426Z,33.78
2023-08-05T10:15:10.213Z,32.95
2023-08-05T10:17:39.577Z,32.21
2023-08-05T10:20:09.804Z,31.85
2023-08-05T10:22:38.052Z,32.52
2023-08-05T10:25:06.629Z,32.74
2023-08-05T10:27:38.509Z,32.92
2023-08-05T10:30:12.216Z,32.39
2023-08-05T10:33:01.059Z,31.86
2023-08-05T10:35:29.948Z,31.66
2023-08-05T10:38:17.042Z,31.85
2023-08-05T10:40:48.423Z,31.44
2023-08-05T10:43:40.177Z,31.14
2023-08-05T10:46:13.981Z,33.20
2023-08-05T10:48:42.955Z,34.84
2023-08-05T10:51:11.045Z,35.84
2023-08-05T10:53:39.640Z,35.66
2023-08-05T10:56:10.408Z,35.25
2023-08-05T10:58:38.239Z,34.38
2023-08-05T11:01:06.944Z,33.66
2023-08-05T11:03:43.465Z,33.06
2023-08-05T11:06:11.952Z,32.85
2023-08-05T11:08:40.338Z,32.69
2023-08-05T11:11:09.327Z,32.15
2023-08-05T11:13:37.811Z,31.82
2023-08-05T11:16:09.575Z,31.53
2023-08-05T11:18:37.410Z,31.30
2023-08-05T11:21:07.332Z,31.08
2023-08-05T11:23:35.108Z,30.99
2023-08-05T11:26:03.124Z,30.67
2023-08-05T11:28:33.615Z,30.40
2023-08-05T11:31:02.942Z,30.17
2023-08-05T11:33:30.671Z,29.93
2023-08-05T11:35:58.766Z,29.86
2023-08-05T11:38:27.877Z,29.75
2023-08-05T11:40:56.518Z,29.72
2023-08-05T11:43:24.724Z,29.36
2023-08-05T11:45:52.966Z,29.55
2023-08-05T11:48:21.514Z,28.85
2023-08-05T11:50:49.230Z,28.98
2023-08-05T11:53:17.885Z,28.94
2023-08-05T11:55:47.555Z,28.04
2023-08-05T11:58:15.407Z,28.46
2023-08-05T12:00:47.175Z,28.22
2023-08-05T12:03:15.746Z,28.00
2023-08-05T12:05:44.738Z,27.75
2023-08-05T12:08:12.504Z,27.42
2023-08-05T12:10:40.248Z,27.14
2023-08-05T12:13:09.867Z,26.86
2023-08-05T12:15:38.433Z,26.64
2023-08-05T12:18:07.206Z,26.52
2023-08-05T12:20:35.786Z,26.44
2023-08-05T12:23:04.226Z,26.43
2023-08-05T12:25:32.663Z,26.51
2023-08-05T12:28:02.667Z,26.85
2023-08-05T12:30:35.478Z,27.06
2023-08-05T12:33:05.939Z,27.15
2023-08-05T12:35:35.269Z,27.23
2023-08-05T12:38:03.086Z,26.82
2023-08-05T12:40:30.772Z,27.75
2023-08-05T12:42:58.432Z,27.94
2023-08-05T12:45:26.072Z,28.01
2023-08-05T12:47:55.254Z,27.97
2023-08-05T12:50:22.901Z,27.83
2023-08-05T12:52:50.591Z,27.87
2023-08-05T12:55:18.334Z,27.79
2023-08-05T12:57:46.060Z,27.71
2023-08-05T13:00:14.883Z,27.54
2023-08-05T13:02:42.687Z,27.60
2023-08-05T13:05:11.839Z,27.69
2023-08-05T13:07:39.636Z,27.76
2023-08-05T13:10:09.186Z,27.79
2023-08-05T13:12:37.976Z,27.78
2023-08-05T13:15:06.294Z,27.77
2023-08-05T13:17:34.172Z,27.74
2023-08-05T13:20:01.955Z,27.65
2023-08-05T13:22:31.010Z,27.43
2023-08-05T13:25:00.541Z,27.21
2023-08-05T13:27:29.323Z,27.02
2023-08-05T13:29:57.252Z,26.94
2023-08-05T13:32:25.054Z,26.82
2023-08-05T13:34:53.613Z,26.63
2023-08-05T13:37:21.466Z,26.52
2023-08-05T13:39:52.094Z,26.33
2023-08-05T13:42:20.830Z,26.11
2023-08-05T13:44:48.572Z,26.11
2023-08-05T13:47:16.348Z,25.81
2023-08-05T13:49:44.047Z,25.90
2023-08-05T13:52:11.938Z,25.77
2023-08-05T13:54:39.617Z,25.63
2023-08-05T13:57:08.894Z,25.30
2023-08-05T13:59:36.544Z,25.33
2023-08-05T14:02:04.406Z,25.16
2023-08-05T14:04:32.327Z,24.98
2023-08-05T14:07:00.017Z,24.79
2023-08-05T14:09:27.694Z,24.61
2023-08-05T14:11:55.473Z,24.22
2023-08-05T14:14:25.591Z,24.32
2023-08-05T14:16:53.402Z,24.18
2023-08-05T14:19:21.418Z,23.66
2023-08-05T14:21:50.404Z,22.79
2023-08-05T14:24:18.526Z,23.14
2023-08-05T14:26:47.705Z,23.93
2023-08-05T14:29:21.431Z,23.88
2023-08-05T14:31:51.354Z,22.64
2023-08-05T14:34:19.491Z,23.03
2023-08-05T14:36:48.520Z,23.32
2023-08-05T14:39:17.031Z,23.57
2023-08-05T14:41:45.649Z,22.87
2023-08-05T14:44:13.651Z,23.51
2023-08-05T14:46:42.776Z,21.59
2023-08-05T14:49:12.178Z,22.00
2023-08-05T14:51:40.335Z,21.41
2023-08-05T14:54:10.189Z,21.38
2023-08-05T14:56:38.012Z,21.22
2023-08-05T14:59:06.146Z,23.02
2023-08-05T15:01:34.078Z,21.54
2023-08-05T15:04:02.205Z,21.97
2023-08-05T15:06:31.581Z,20.81
2023-08-05T15:08:59.624Z,22.44
2023-08-05T15:11:27.664Z,21.94
2023-08-05T15:13:55.521Z,20.95
2023-08-05T15:16:23.377Z,21.71
2023-08-05T15:18:51.283Z,22.80
2023-08-05T15:21:19.060Z,22.87
2023-08-05T15:23:48.578Z,23.53
2023-08-05T15:26:22.647Z,21.70
2023-08-05T15:28:50.520Z,21.63
2023-08-05T15:31:19.731Z,23.38
2023-08-05T15:33:48.068Z,21.59
2023-08-05T15:36:16.199Z,22.58
2023-08-05T15:38:44.098Z,23.20
2023-08-05T15:41:13.449Z,21.63
2023-08-05T15:43:41.440Z,20.95
2023-08-05T15:46:09.474Z,21.99
2023-08-05T15:48:37.434Z,22.11
2023-08-05T15:51:05.506Z,22.82
2023-08-05T15:53:33.730Z,22.83
2023-08-05T15:56:01.834Z,21.01
2023-08-05T15:58:31.678Z,23.00
2023-08-05T16:01:02.703Z,20.78
2023-08-05T16:03:30.787Z,20.92
2023-08-05T16:06:03.526Z,21.63
2023-08-05T16:08:33.216Z,20.74
2023-08-05T16:11:03.244Z,22.16
2023-08-05T16:13:33.869Z,21.71
2023-08-05T16:16:13.083Z,21.36
2023-08-05T16:18:42.703Z,20.52
2023-08-05T16:21:18.317Z,21.62
2023-08-05T16:23:58.693Z,21.10
2023-08-05T16:26:34.807Z,22.78
2023-08-05T16:29:06.924Z,23.27
2023-08-05T16:31:35.138Z,23.27
2023-08-05T16:34:04.391Z,22.51
2023-08-05T16:36:32.602Z,23.28
2023-08-05T16:39:08.969Z,20.75
2023-08-05T16:41:44.518Z,22.41
2023-08-05T16:44:28.579Z,22.54
2023-08-05T16:47:15.817Z,22.51
2023-08-05T16:49:49.109Z,22.23
2023-08-05T16:52:18.174Z,21.32
2023-08-05T16:54:47.226Z,21.29
2023-08-05T16:57:16.437Z,23.15
2023-08-05T16:59:45.806Z,23.09
2023-08-05T17:02:13.880Z,22.78
2023-08-05T17:04:41.831Z,23.08
2023-08-05T17:07:09.768Z,23.05
2023-08-05T17:09:37.976Z,22.99
2023-08-05T17:12:06.216Z,23.07
2023-08-05T17:14:34.167Z,23.08
2023-08-05T17:17:05.530Z,22.38
2023-08-05T17:19:34.962Z,23.09
2023-08-05T17:22:03.037Z,23.09
2023-08-05T17:24:31.313Z,23.09
2023-08-05T17:27:00.185Z,22.69
2023-08-05T17:29:28.193Z,23.03
2023-08-05T17:31:57.454Z,22.98
2023-08-05T17:34:26.684Z,22.99
2023-08-05T17:36:54.908Z,22.97
2023-08-05T17:39:22.935Z,22.89
2023-08-05T17:41:51.226Z,22.87
2023-08-05T17:44:19.220Z,22.85
2023-08-05T17:46:47.757Z,22.79
2023-08-05T17:49:15.623Z,22.75
2023-08-05T17:51:47.289Z,22.78
2023-08-05T17:54:15.708Z,22.75
2023-08-05T17:56:45.801Z,22.69
2023-08-05T17:59:13.951Z,22.57
2023-08-05T18:01:42.432Z,22.49
2023-08-05T18:04:11.278Z,22.39
2023-08-05T18:06:39.551Z,21.85
2023-08-05T18:09:09.119Z,22.23
2023-08-05T18:11:37.337Z,22.01
2023-08-05T18:14:05.325Z,22.13
2023-08-05T18:16:33.239Z,21.99
2023-08-05T18:19:01.263Z,21.96
2023-08-05T18:21:28.962Z,21.94
2023-08-05T18:23:57.916Z,21.83
2023-08-05T18:26:26.991Z,21.86
2023-08-05T18:28:54.955Z,21.78
2023-08-05T18:31:22.855Z,21.77
2023-08-05T18:33:52.326Z,21.77
2023-08-05T18:36:20.392Z,21.74
2023-08-05T18:38:48.230Z,21.73
2023-08-05T18:41:16.182Z,21.74
2023-08-05T18:43:45.854Z,21.65
2023-08-05T18:46:13.912Z,21.63
2023-08-05T18:48:41.950Z,21.54
2023-08-05T18:51:09.876Z,21.50
2023-08-05T18:53:40.929Z,21.43
2023-08-05T18:56:10.224Z,21.40
2023-08-05T18:58:39.220Z,21.36
2023-08-05T19:01:10.039Z,21.30
2023-08-05T19:03:38.506Z,21.33
2023-08-05T19:06:06.545Z,21.30
2023-08-05T19:08:34.356Z,21.23
2023-08-05T19:11:02.289Z,21.35
2023-08-05T19:13:30.154Z,21.32
2023-08-05T19:16:01.615Z,21.33
2023-08-05T19:18:35.922Z,21.26
2023-08-05T19:21:05.433Z,21.22
2023-08-05T19:23:33.299Z,21.17
2023-08-05T19:26:01.919Z,21.08
2023-08-05T19:28:31.650Z,21.03
2023-08-05T19:30:59.560Z,21.02
2023-08-05T19:33:27.509Z,20.99
2023-08-05T19:35:56.869Z,20.91
2023-08-05T19:38:24.883Z,20.88
2023-08-05T19:40:58.493Z,20.87
2023-08-05T19:43:26.498Z,20.89
2023-08-05T19:45:54.362Z,20.86
2023-08-05T19:48:22.328Z,20.91
2023-08-05T19:50:56.635Z,20.89
2023-08-05T19:53:36.605Z,20.79
2023-08-05T19:56:04.844Z,20.86
2023-08-05T19:58:32.772Z,20.85
2023-08-05T20:01:01.204Z,20.83
2023-08-05T20:03:29.904Z,20.83
2023-08-05T20:05:57.706Z,20.87
2023-08-05T20:08:25.409Z,20.88
2023-08-05T20:10:54.707Z,20.90
2023-08-05T20:13:22.649Z,20.93
2023-08-05T20:15:50.879Z,20.92
2023-08-05T20:18:21.430Z,20.89
2023-08-05T20:20:49.604Z,20.88
2023-08-05T20:23:19.129Z,20.80
2023-08-05T20:25:46.811Z,20.84
2023-08-05T20:28:16.049Z,20.82
2023-08-05T20:30:43.815Z,20.80
2023-08-05T20:33:11.725Z,20.83
2023-08-05T20:35:39.513Z,20.75
2023-08-05T20:38:07.429Z,20.48
2023-08-05T20:40:37.904Z,20.77
2023-08-05T20:43:05.724Z,20.69
2023-08-05T20:45:38.421Z,20.76
2023-08-05T20:48:06.439Z,20.75
2023-08-05T20:50:34.619Z,20.76
2023-08-05T20:53:02.621Z,20.77
2023-08-05T20:55:30.412Z,20.73
2023-08-05T20:57:58.096Z,20.73
2023-08-05T21:00:25.864Z,20.53
2023-08-05T21:02:57.232Z,20.73
2023-08-05T21:05:26.298Z,20.76
2023-08-05T21:07:54.134Z,20.79
2023-08-05T21:10:25.087Z,20.58
2023-08-05T21:12:52.930Z,20.81
2023-08-05T21:15:20.655Z,20.85
2023-08-05T21:17:48.390Z,20.89
2023-08-05T21:20:17.678Z,20.88
2023-08-05T21:22:45.381Z,20.99
2023-08-05T21:25:13.146Z,20.91
2023-08-05T21:27:41.288Z,20.99
2023-08-05T21:30:09.917Z,21.00
2023-08-05T21:32:37.608Z,21.01
2023-08-05T21:35:06.353Z,20.94
2023-08-05T21:37:35.370Z,20.78
2023-08-05T21:40:03.198Z,20.95
2023-08-05T21:42:30.857Z,20.96
2023-08-05T21:44:58.604Z,20.94
2023-08-05T21:47:26.318Z,20.78
2023-08-05T21:49:54.150Z,20.98
2023-08-05T21:52:21.885Z,20.97
2023-08-05T21:54:51.316Z,20.98
2023-08-05T21:57:19.006Z,20.97
2023-08-05T21:59:46.838Z,20.75
2023-08-05T22:02:14.618Z,20.94
2023-08-05T22:04:44.310Z,20.95
2023-08-05T22:07:14.673Z,20.78
2023-08-05T22:09:45.125Z,20.62
2023-08-05T22:12:14.286Z,20.95
2023-08-05T22:14:43.222Z,20.96
2023-08-05T22:17:10.907Z,20.89
2023-08-05T22:19:39.121Z,20.95
2023-08-05T22:22:07.695Z,20.92
2023-08-05T22:24:41.623Z,20.83
2023-08-05T22:27:10.205Z,20.85
2023-08-05T22:29:39.461Z,20.47
2023-08-05T22:32:08.127Z,20.81
2023-08-05T22:34:36.264Z,20.79
2023-08-05T22:37:04.542Z,20.78
2023-08-05T22:39:32.433Z,20.64
2023-08-05T22:42:00.081Z,20.75
2023-08-05T22:44:27.875Z,20.73
2023-08-05T22:46:57.187Z,20.74
2023-08-05T22:49:24.925Z,20.71
2023-08-05T22:51:52.654Z,20.64
2023-08-05T22:54:20.629Z,20.70
2023-08-05T22:56:48.359Z,20.51
2023-08-05T22:59:16.255Z,20.70
2023-08-05T23:01:43.988Z,20.69
2023-08-05T23:04:13.093Z,20.65
2023-08-05T23:06:40.789Z,20.70
2023-08-05T23:09:08.696Z,20.62
2023-08-05T23:11:36.371Z,20.67
2023-08-05T23:14:04.242Z,20.59
2023-08-05T23:16:31.959Z,20.63
2023-08-05T23:18:59.728Z,20.60
2023-08-05T23:21:30.652Z,20.53
2023-08-05T23:23:59.057Z,20.48
2023-08-05T23:26:27.536Z,20.44
2023-08-05T23:28:59.208Z,20.44
2023-08-05T23:31:27.200Z,20.40
2023-08-05T23:33:55.207Z,20.49
2023-08-05T23:36:23.220Z,20.49
2023-08-05T23:38:52.254Z,20.47
2023-08-05T23:41:19.950Z,20.45
2023-08-05T23:43:47.589Z,20.46
2023-08-05T23:46:15.554Z,20.45
2023-08-05T23:48:43.268Z,20.46
2023-08-05T23:51:11.067Z,20.36
2023-08-05T23:53:38.729Z,20.45
2023-08-05T23:56:07.904Z,20.43
2023-08-05T23:58:35.600Z,20.38
